createdAt,value
2023-08-03T00:01:11.702Z,87.80
2023-08-03T00:03:38.870Z,88.40
2023-08-03T00:06:06.003Z,88.60
2023-08-03T00:08:35.093Z,89.00
2023-08-03T00:11:04.338Z,89.00
2023-08-03T00:13:31.314Z,89.20
2023-08-03T00:16:03.153Z,89.60
2023-08-03T00:18:30.202Z,89.60
2023-08-03T00:20:57.411Z,89.90
2023-08-03T00:23:26.828Z,90.00
2023-08-03T00:25:53.869Z,89.70
2023-08-03T00:28:23.430Z,90.10
2023-08-03T00:30:54.701Z,89.80
2023-08-03T00:33:21.847Z,89.70
2023-08-03T00:35:51.074Z,90.20
2023-08-03T00:38:18.149Z,89.70
2023-08-03T00:40:46.742Z,89.90
2023-08-03T00:43:13.723Z,90.10
2023-08-03T00:45:40.797Z,89.80
2023-08-03T00:48:07.874Z,89.90
2023-08-03T00:50:34.959Z,89.90
2023-08-03T00:53:05.372Z,90.00
2023-08-03T00:55:35.547Z,90.20
2023-08-03T00:58:07.201Z,90.60
2023-08-03T01:00:34.777Z,90.80
2023-08-03T01:03:04.116Z,90.80
2023-08-03T01:05:34.804Z,90.90
2023-08-03T01:08:04.603Z,91.00
2023-08-03T01:10:36.499Z,91.00
2023-08-03T01:13:05.662Z,91.00
2023-08-03T01:15:32.673Z,90.80
2023-08-03T01:17:59.681Z,91.00
2023-08-03T01:20:27.544Z,90.80
2023-08-03T01:22:56.824Z,90.90
2023-08-03T01:25:23.805Z,91.00
2023-08-03T01:27:51.431Z,90.70
2023-08-03T01:30:20.641Z,90.60
2023-08-03T01:32:50.048Z,90.60
2023-08-03T01:35:17.500Z,90.70
2023-08-03T01:37:48.769Z,90.90
2023-08-03T01:40:15.835Z,90.90
2023-08-03T01:42:42.785Z,91.10
2023-08-03T01:45:12.247Z,91.20
2023-08-03T01:47:39.288Z,91.30
2023-08-03T01:50:07.857Z,91.30
2023-08-03T01:52:35.289Z,91.40
2023-08-03T01:55:04.562Z,91.20
2023-08-03T01:57:32.317Z,91.20
2023-08-03T02:00:01.488Z,91.10
2023-08-03T02:02:30.824Z,91.10
2023-08-03T02:04:57.953Z,91.00
2023-08-03T02:07:44.238Z,91.00
2023-08-03T02:10:14.551Z,90.90
2023-08-03T02:12:46.233Z,90.90
2023-08-03T02:15:15.616Z,90.70
2023-08-03T02:17:43.370Z,90.50
2023-08-03T02:20:13.665Z,90.70
2023-08-03T02:22:42.986Z,90.60
2023-08-03T02:25:16.307Z,90.70
2023-08-03T02:27:43.244Z,90.60
2023-08-03T02:30:13.533Z,90.50
2023-08-03T02:32:44.781Z,90.60
2023-08-03T02:35:17.983Z,90.30
2023-08-03T02:37:47.789Z,90.30
2023-08-03T02:40:21.330Z,90.60
2023-08-03T02:42:48.868Z,90.50
2023-08-03T02:45:18.488Z,90.20
2023-08-03T02:47:45.701Z,90.30
2023-08-03T02:50:18.301Z,90.30
2023-08-03T02:52:45.958Z,90.10
2023-08-03T02:55:16.232Z,90.20
2023-08-03T02:57:46.753Z,90.00
2023-08-03T03:00:17.995Z,89.80
2023-08-03T03:02:48.237Z,89.70
2023-08-03T03:05:19.092Z,89.80
2023-08-03T03:07:50.641Z,89.50
2023-08-03T03:10:18.232Z,89.80
2023-08-03T03:12:47.427Z,89.70
2023-08-03T03:15:14.622Z,89.80
2023-08-03T03:17:43.759Z,90.00
2023-08-03T03:20:11.955Z,89.80
2023-08-03T03:22:45.237Z,89.80
2023-08-03T03:25:12.307Z,89.70
2023-08-03T03:27:39.313Z,90.00
2023-08-03T03:30:11.200Z,90.30
2023-08-03T03:32:39.044Z,90.10
2023-08-03T03:35:08.468Z,90.00
2023-08-03T03:37:36.387Z,90.00
2023-08-03T03:40:03.627Z,90.10
2023-08-03T03:42:37.823Z,89.50
2023-08-03T03:45:08.228Z,90.10
2023-08-03T03:47:40.854Z,89.90
2023-08-03T03:50:13.765Z,89.70
2023-08-03T03:52:42.955Z,90.10
2023-08-03T03:55:17.237Z,90.00
2023-08-03T03:57:50.873Z,89.80
2023-08-03T04:00:20.323Z,89.30
2023-08-03T04:02:52.951Z,89.40
2023-08-03T04:05:24.638Z,89.10
2023-08-03T04:07:51.633Z,89.00
2023-08-03T04:10:20.519Z,89.10
2023-08-03T04:12:50.662Z,88.70
2023-08-03T04:15:20.647Z,88.90
2023-08-03T04:17:49.803Z,88.80
2023-08-03T04:20:19.632Z,89.00
2023-08-03T04:22:47.442Z,88.60
2023-08-03T04:25:17.847Z,88.90
2023-08-03T04:27:49.824Z,89.00
2023-08-03T04:30:22.749Z,88.70
2023-08-03T04:32:50.254Z,88.60
2023-08-03T04:35:17.957Z,88.50
2023-08-03T04:37:50.835Z,88.60
2023-08-03T04:40:18.425Z,88.80
2023-08-03T04:42:49.890Z,88.20
2023-08-03T04:45:21.300Z,88.10
2023-08-03T04:47:52.160Z,88.70
2023-08-03T04:50:23.437Z,88.70
2023-08-03T04:52:52.093Z,88.50
2023-08-03T04:55:26.613Z,88.40
2023-08-03T04:57:54.495Z,88.30
2023-08-03T05:00:25.648Z,88.40
2023-08-03T05:02:52.784Z,88.40
2023-08-03T05:05:22.310Z,88.00
2023-08-03T05:07:51.537Z,87.80
2023-08-03T05:10:22.486Z,87.20
2023-08-03T05:12:52.080Z,87.70
2023-08-03T05:15:19.185Z,87.50
2023-08-03T05:17:50.930Z,88.00
2023-08-03T05:20:18.154Z,86.70
2023-08-03T05:22:45.396Z,87.40
2023-08-03T05:25:19.398Z,87.00
2023-08-03T05:27:48.931Z,87.70
2023-08-03T05:30:16.587Z,87.20
2023-08-03T05:32:45.026Z,86.90
2023-08-03T05:35:15.945Z,86.90
2023-08-03T05:37:42.918Z,86.20
2023-08-03T05:40:10.507Z,86.70
2023-08-03T05:42:40.955Z,86.20
2023-08-03T05:45:12.715Z,85.90
2023-08-03T05:47:40.462Z,86.20
2023-08-03T05:50:16.739Z,85.40
2023-08-03T05:52:45.933Z,86.20
2023-08-03T05:55:17.541Z,86.40
2023-08-03T05:57:44.590Z,85.30
2023-08-03T06:00:16.511Z,84.90
2023-08-03T06:02:43.913Z,84.90
2023-08-03T06:05:33.762Z,84.30
2023-08-03T06:08:00.798Z,85.50
2023-08-03T06:10:28.361Z,85.60
2023-08-03T06:12:57.558Z,84.70
2023-08-03T06:15:27.144Z,84.70
2023-08-03T06:18:28.553Z,83.60
2023-08-03T06:20:57.679Z,84.30
2023-08-03T06:23:31.668Z,83.70
2023-08-03T06:25:59.689Z,84.60
2023-08-03T06:28:29.179Z,84.50
2023-08-03T06:30:56.184Z,84.40
2023-08-03T06:33:27.645Z,83.60
2023-08-03T06:35:54.979Z,83.20
2023-08-03T06:38:28.331Z,83.20
2023-08-03T06:40:57.686Z,83.00
2023-08-03T06:43:26.795Z,84.00
2023-08-03T06:45:58.546Z,83.70
2023-08-03T06:48:27.798Z,84.90
2023-08-03T06:50:57.110Z,82.70
2023-08-03T06:53:24.122Z,81.80
2023-08-03T06:55:51.665Z,82.10
2023-08-03T06:58:22.075Z,81.50
2023-08-03T07:00:51.644Z,81.90
2023-08-03T07:03:18.916Z,82.60
2023-08-03T07:05:46.903Z,81.20
2023-08-03T07:08:13.990Z,79.50
2023-08-03T07:10:41.133Z,80.00
2023-08-03T07:13:08.183Z,78.60
2023-08-03T07:15:35.652Z,78.40
2023-08-03T07:18:05.968Z,79.10
2023-08-03T07:20:34.358Z,79.00
2023-08-03T07:23:04.090Z,78.20
2023-08-03T07:25:32.924Z,76.30
2023-08-03T07:28:03.733Z,73.70
2023-08-03T07:30:38.144Z,71.50
2023-08-03T07:33:08.180Z,72.70
2023-08-03T07:35:38.616Z,70.70
2023-08-03T07:38:08.008Z,71.20
2023-08-03T07:40:37.397Z,71.40
2023-08-03T07:43:04.477Z,72.70
2023-08-03T07:48:01.349Z,70.20
2023-08-03T07:50:33.616Z,69.50
2023-08-03T07:53:00.673Z,67.10
2023-08-03T07:55:27.655Z,67.10
2023-08-03T07:57:56.983Z,68.20
2023-08-03T08:00:26.752Z,69.20
2023-08-03T08:02:53.868Z,70.80
2023-08-03T08:05:23.556Z,70.60
2023-08-03T08:07:50.635Z,71.00
2023-08-03T08:10:17.776Z,70.10
2023-08-03T08:12:50.023Z,70.50
2023-08-03T08:15:19.628Z,71.80
2023-08-03T08:17:46.670Z,71.70
2023-08-03T08:20:15.915Z,71.20
2023-08-03T08:22:47.558Z,69.90
2023-08-03T08:25:17.378Z,70.00
2023-08-03T08:27:44.624Z,70.30
2023-08-03T08:30:11.932Z,69.90
2023-08-03T08:32:41.180Z,70.50
2023-08-03T08:35:08.633Z,69.10
2023-08-03T08:37:35.707Z,70.50
2023-08-03T08:40:04.211Z,69.00
2023-08-03T08:42:34.523Z,68.50
2023-08-03T08:45:06.384Z,69.00
2023-08-03T08:47:35.995Z,69.60
2023-08-03T08:53:15.055Z,69.40
2023-08-03T08:56:05.471Z,68.70
2023-08-03T09:00:47.242Z,68.40
2023-08-03T09:03:17.212Z,69.40
2023-08-03T09:08:20.051Z,67.70
2023-08-03T09:10:53.791Z,67.30
2023-08-03T09:13:36.412Z,67.30
2023-08-03T09:16:05.935Z,66.20
2023-08-03T09:18:33.623Z,67.70
2023-08-03T09:28:53.701Z,65.10
2023-08-03T09:31:30.028Z,66.30
2023-08-03T09:33:58.863Z,64.40
2023-08-03T09:44:20.519Z,65.40
2023-08-03T09:46:50.793Z,66.00
2023-08-03T09:49:19.970Z,64.70
2023-08-03T09:57:24.777Z,66.90
2023-08-03T10:00:01.961Z,65.90
2023-08-03T10:03:05.358Z,65.10
2023-08-03T10:05:32.415Z,63.90
2023-08-03T10:08:18.525Z,64.90
2023-08-03T10:10:49.297Z,64.20
2023-08-03T10:13:18.593Z,63.50
2023-08-03T10:15:45.759Z,63.20
2023-08-03T10:18:12.836Z,64.70
2023-08-03T10:20:42.142Z,64.20
2023-08-03T10:23:10.644Z,64.40
2023-08-03T10:25:53.400Z,64.50
2023-08-03T10:28:39.345Z,62.60
2023-08-03T10:31:18.538Z,63.90
2023-08-03T10:33:48.830Z,63.80
2023-08-03T10:36:31.760Z,65.50
2023-08-03T10:39:08.697Z,65.00
2023-08-03T10:41:37.995Z,64.20
2023-08-03T10:44:08.502Z,63.50
2023-08-03T10:46:41.429Z,64.30
2023-08-03T10:49:22.191Z,61.30
2023-08-03T10:51:53.058Z,61.90
2023-08-03T10:54:24.075Z,63.10
2023-08-03T10:57:06.861Z,62.50
2023-08-03T10:59:49.137Z,60.60
2023-08-03T11:02:23.289Z,61.40
2023-08-03T11:04:53.594Z,61.50
2023-08-03T11:07:38.922Z,61.00
2023-08-03T11:10:07.969Z,59.20
2023-08-03T11:12:37.488Z,59.50
2023-08-03T11:15:06.339Z,58.00
2023-08-03T11:17:37.022Z,56.60
2023-08-03T11:20:05.920Z,57.90
2023-08-03T11:22:35.487Z,58.00
2023-08-03T11:25:05.015Z,56.80
2023-08-03T11:27:34.367Z,58.80
2023-08-03T11:30:04.019Z,57.40
2023-08-03T11:32:34.543Z,59.10
2023-08-03T11:35:03.550Z,58.30
2023-08-03T11:37:36.002Z,58.70
2023-08-03T11:40:10.237Z,59.00
2023-08-03T11:42:44.472Z,60.40
2023-08-03T11:45:14.767Z,59.30
2023-08-03T11:47:45.785Z,58.90
2023-08-03T11:50:14.178Z,57.50
2023-08-03T11:52:41.317Z,57.60
2023-08-03T11:55:08.648Z,58.90
2023-08-03T11:57:54.473Z,56.50
2023-08-03T12:00:24.904Z,57.50
2023-08-03T12:05:21.835Z,54.90
2023-08-03T12:10:29.868Z,54.70
2023-08-03T12:17:57.856Z,55.40
2023-08-03T12:20:27.549Z,55.60
2023-08-03T12:22:55.293Z,55.60
2023-08-03T12:25:24.435Z,55.00
2023-08-03T12:27:56.557Z,56.10
2023-08-03T12:30:23.667Z,57.00
2023-08-03T12:43:39.899Z,56.70
2023-08-03T12:47:01.954Z,55.30
2023-08-03T12:49:37.705Z,55.80
2023-08-03T12:52:04.916Z,58.80
2023-08-03T12:54:31.969Z,58.00
2023-08-03T12:56:58.972Z,61.00
2023-08-03T12:59:25.982Z,60.70
2023-08-03T13:01:53.691Z,59.70
2023-08-03T13:04:20.709Z,60.00
2023-08-03T13:06:52.348Z,60.60
2023-08-03T13:09:19.355Z,62.90
2023-08-03T13:11:46.498Z,61.60
2023-08-03T13:14:14.145Z,59.20
2023-08-03T13:16:41.418Z,57.60
2023-08-03T13:19:08.497Z,57.80
2023-08-03T13:21:37.817Z,58.00
2023-08-03T13:24:05.019Z,57.90
2023-08-03T13:26:34.664Z,55.70
2023-08-03T13:29:01.671Z,55.80
2023-08-03T13:31:28.696Z,56.50
2023-08-03T13:33:55.706Z,56.40
2023-08-03T13:36:25.085Z,56.30
2023-08-03T13:38:52.041Z,54.80
2023-08-03T13:41:22.864Z,55.40
2023-08-03T13:43:52.322Z,53.70
2023-08-03T13:46:19.407Z,54.50
2023-08-03T13:48:48.992Z,55.30
2023-08-03T13:51:18.268Z,55.90
2023-08-03T13:53:55.916Z,55.00
2023-08-03T13:56:32.200Z,56.10
2023-08-03T14:02:18.662Z,54.00
2023-08-03T14:04:45.963Z,53.90
2023-08-03T14:07:50.578Z,53.60
2023-08-03T14:22:41.562Z,50.70
2023-08-03T14:27:52.835Z,50.30
2023-08-03T14:30:20.905Z,52.20
2023-08-03T14:32:48.584Z,53.60
2023-08-03T14:37:48.145Z,50.50
2023-08-03T14:40:17.566Z,51.10
2023-08-03T14:42:56.324Z,50.50
2023-08-03T14:45:28.811Z,50.20
2023-08-03T14:48:06.764Z,52.60
2023-08-03T14:50:36.241Z,50.50
2023-08-03T14:53:03.405Z,52.30
2023-08-03T14:55:34.621Z,52.20
2023-08-03T14:58:04.121Z,52.60
2023-08-03T15:00:31.150Z,52.30
2023-08-03T15:03:02.757Z,51.30
2023-08-03T15:05:32.947Z,52.10
2023-08-03T15:07:59.880Z,51.80
2023-08-03T15:10:29.248Z,52.70
2023-08-03T15:12:57.531Z,52.10
2023-08-03T15:15:31.161Z,53.20
2023-08-03T15:17:59.643Z,53.00
2023-08-03T15:20:35.893Z,54.00
2023-08-03T15:23:07.583Z,54.40
2023-08-03T15:25:38.084Z,54.80
2023-08-03T15:28:11.490Z,54.00
2023-08-03T15:31:01.098Z,53.20
2023-08-03T15:33:28.563Z,53.60
2023-08-03T15:35:57.437Z,55.40
2023-08-03T15:38:27.093Z,53.50
2023-08-03T15:41:02.460Z,55.00
2023-08-03T15:43:37.355Z,54.60
2023-08-03T15:46:13.814Z,54.20
2023-08-03T15:49:03.031Z,54.10
2023-08-03T15:51:33.099Z,58.00
2023-08-03T15:54:10.884Z,57.90
2023-08-03T15:56:42.430Z,56.40
2023-08-03T15:59:11.854Z,55.90
2023-08-03T16:01:38.851Z,57.10
2023-08-03T16:04:05.881Z,56.40
2023-08-03T16:06:35.377Z,55.70
2023-08-03T16:09:07.066Z,55.20
2023-08-03T16:11:53.306Z,55.90
2023-08-03T16:14:23.900Z,55.60
2023-08-03T16:16:51.206Z,55.80
2023-08-03T16:19:20.725Z,56.10
2023-08-03T16:21:47.794Z,56.50
2023-08-03T16:24:19.039Z,57.30
2023-08-03T16:26:48.739Z,60.40
2023-08-03T16:29:20.702Z,57.80
2023-08-03T16:34:22.431Z,56.00
2023-08-03T16:36:50.188Z,56.30
2023-08-03T16:39:19.311Z,55.90
2023-08-03T16:41:47.056Z,56.90
2023-08-03T16:44:18.764Z,56.40
2023-08-03T16:46:50.661Z,56.90
2023-08-03T16:49:21.385Z,56.50
2023-08-03T16:51:48.566Z,57.30
2023-08-03T16:54:15.497Z,57.70
2023-08-03T16:56:42.581Z,58.00
2023-08-03T16:59:11.867Z,56.90
2023-08-03T17:01:41.491Z,59.70
2023-08-03T17:04:08.548Z,57.90
2023-08-03T17:06:38.245Z,57.20
2023-08-03T17:09:05.914Z,58.30
2023-08-03T17:11:35.111Z,58.80
2023-08-03T17:14:04.282Z,56.80
2023-08-03T17:16:33.672Z,57.10
2023-08-03T17:19:00.688Z,58.90
2023-08-03T17:21:27.719Z,56.30
2023-08-03T17:23:54.717Z,58.90
2023-08-03T17:26:21.722Z,56.50
2023-08-03T17:28:50.844Z,57.90
2023-08-03T17:31:17.833Z,55.90
2023-08-03T17:33:44.841Z,55.30
2023-08-03T17:36:12.644Z,56.60
2023-08-03T17:38:39.628Z,56.10
2023-08-03T17:41:06.659Z,55.30
2023-08-03T17:43:33.731Z,56.40
2023-08-03T17:46:07.908Z,57.00
2023-08-03T17:48:37.942Z,56.20
2023-08-03T17:51:09.487Z,58.20
2023-08-03T17:53:39.478Z,56.50
2023-08-03T17:56:15.935Z,57.70
2023-08-03T17:58:46.466Z,58.60
2023-08-03T18:01:17.287Z,61.40
2023-08-03T18:03:45.782Z,62.10
2023-08-03T18:06:17.271Z,58.10
2023-08-03T18:08:46.773Z,58.90
2023-08-03T18:11:16.726Z,58.70
2023-08-03T18:13:46.334Z,59.70
2023-08-03T18:16:13.915Z,59.40
2023-08-03T18:18:47.276Z,64.00
2023-08-03T18:21:19.088Z,65.10
2023-08-03T18:23:47.424Z,65.20
2023-08-03T18:26:16.713Z,66.30
2023-08-03T18:28:46.106Z,63.10
2023-08-03T18:31:15.611Z,67.20
2023-08-03T18:33:42.762Z,66.50
2023-08-03T18:36:15.435Z,66.80
2023-08-03T18:38:43.850Z,67.30
2023-08-03T18:41:14.863Z,65.70
2023-08-03T18:43:46.094Z,67.60
2023-08-03T18:46:17.848Z,67.50
2023-08-03T18:48:48.287Z,69.30
2023-08-03T18:51:19.784Z,67.40
2023-08-03T18:53:47.238Z,69.00
2023-08-03T18:56:17.715Z,69.10
2023-08-03T18:58:45.597Z,69.00
2023-08-03T19:01:12.706Z,69.80
2023-08-03T19:03:43.365Z,67.50
2023-08-03T19:06:11.372Z,69.00
2023-08-03T19:08:38.884Z,68.70
2023-08-03T19:11:09.089Z,68.70
2023-08-03T19:13:36.156Z,69.20
2023-08-03T19:16:03.227Z,70.20
2023-08-03T19:18:30.422Z,70.90
2023-08-03T19:20:57.713Z,70.50
2023-08-03T19:23:27.329Z,71.00
2023-08-03T19:25:58.325Z,71.50
2023-08-03T19:28:25.859Z,70.40
2023-08-03T19:30:58.799Z,70.80
2023-08-03T19:33:26.046Z,71.40
2023-08-03T19:35:53.112Z,70.70
2023-08-03T19:38:20.122Z,71.50
2023-08-03T19:40:48.947Z,72.70
2023-08-03T19:43:16.359Z,73.50
2023-08-03T19:45:48.167Z,73.50
2023-08-03T19:48:17.399Z,73.30
2023-08-03T19:59:31.564Z,74.80
2023-08-03T20:06:17.813Z,75.10
2023-08-03T20:08:48.271Z,75.40
2023-08-03T20:11:15.994Z,76.30
2023-08-03T20:16:41.884Z,76.90
2023-08-03T20:21:41.234Z,76.50
2023-08-03T20:24:13.095Z,77.50
2023-08-03T20:26:44.456Z,77.00
2023-08-03T20:29:20.834Z,76.80
2023-08-03T20:31:48.420Z,77.40
2023-08-03T20:34:17.679Z,77.80
2023-08-03T20:36:45.057Z,77.00
2023-08-03T20:49:14.742Z,77.70
2023-08-03T20:51:41.750Z,77.90
2023-08-03T20:56:38.912Z,78.60
2023-08-03T20:59:06.025Z,78.60
2023-08-03T21:01:33.514Z,78.40
2023-08-03T21:04:00.650Z,77.80
2023-08-03T21:06:28.491Z,77.30
2023-08-03T21:08:55.520Z,76.70
2023-08-03T21:11:22.544Z,77.00
2023-08-03T21:13:51.629Z,76.90
2023-08-03T21:16:18.647Z,77.00
2023-08-03T21:21:22.921Z,76.20
2023-08-03T21:23:49.956Z,75.70
2023-08-03T21:26:17.011Z,76.20
2023-08-03T21:28:45.701Z,76.10
2023-08-03T21:31:12.713Z,76.50
2023-08-03T21:33:39.901Z,76.90
2023-08-03T21:36:07.123Z,76.60
2023-08-03T21:38:34.164Z,77.00
2023-08-03T21:41:03.434Z,76.60
2023-08-03T21:43:33.386Z,77.10
2023-08-03T21:46:00.346Z,76.70
2023-08-03T21:48:30.173Z,76.70
2023-08-03T21:50:57.211Z,76.00
2023-08-03T21:53:26.737Z,76.80
2023-08-03T21:55:53.863Z,74.90
2023-08-03T21:58:23.554Z,74.40
2023-08-03T22:00:50.712Z,74.70
2023-08-03T22:03:19.670Z,74.30
2023-08-03T22:05:46.778Z,74.60
2023-08-03T22:08:16.124Z,75.50
2023-08-03T22:10:43.442Z,75.70
2023-08-03T22:13:10.454Z,74.80
2023-08-03T22:15:39.780Z,73.00
2023-08-03T22:18:09.253Z,73.60
2023-08-03T22:20:36.283Z,73.40
2023-08-03T22:23:03.270Z,74.40
2023-08-03T22:25:35.053Z,74.50
2023-08-03T22:28:02.022Z,75.30
2023-08-03T22:30:29.520Z,75.50
2023-08-03T22:32:56.694Z,75.60
2023-08-03T22:35:23.683Z,75.10
2023-08-03T22:37:53.242Z,74.30
2023-08-03T22:40:20.310Z,75.10
2023-08-03T22:42:49.459Z,74.10
2023-08-03T22:45:16.467Z,75.50
2023-08-03T22:48:08.785Z,76.50
2023-08-03T22:50:37.792Z,75.90
2023-08-03T22:53:04.908Z,73.20
2023-08-03T22:55:31.894Z,75.40
2023-08-03T22:57:58.916Z,75.10
2023-08-03T23:00:30.538Z,75.10
2023-08-03T23:02:59.754Z,75.60
2023-08-03T23:05:27.069Z,76.50
2023-08-03T23:07:56.616Z,76.00
2023-08-03T23:10:23.628Z,76.30
2023-08-03T23:12:52.902Z,76.50
2023-08-03T23:15:22.404Z,75.30
2023-08-03T23:17:54.398Z,75.90
2023-08-03T23:20:21.406Z,76.70
2023-08-03T23:22:48.415Z,76.30
2023-08-03T23:25:15.424Z,76.00
2023-08-03T23:27:42.425Z,75.70
2023-08-03T23:30:09.907Z,76.60
2023-08-03T23:32:38.529Z,76.50
2023-08-03T23:35:08.495Z,76.10
2023-08-03T23:37:35.535Z,75.60
2023-08-03T23:40:05.546Z,74.20
2023-08-03T23:42:32.516Z,74.30
2023-08-03T23:45:01.990Z,73.80
2023-08-03T23:47:29.040Z,75.40
2023-08-03T23:49:58.527Z,74.60
2023-08-03T23:52:25.510Z,75.00
2023-08-03T23:54:52.486Z,74.30
2023-08-03T23:57:21.573Z,75.30
2023-08-03T23:59:53.868Z,74.80
